createdAt,value
2023-04-29T00:02:26.719Z,4.55
2023-04-29T00:05:30.082Z,5.28
2023-04-29T00:08:33.042Z,5.27
2023-04-29T00:11:35.589Z,5.47
2023-04-29T00:14:38.700Z,4.90
2023-04-29T00:17:41.285Z,5.20
2023-04-29T00:20:43.985Z,4.95
2023-04-29T00:23:46.676Z,4.70
2023-04-29T00:26:49.262Z,5.32
2023-04-29T00:29:52.368Z,5.10
2023-04-29T00:32:55.598Z,5.38
2023-04-29T00:35:58.324Z,5.25
2023-04-29T00:39:00.935Z,5.43
2023-04-29T00:42:03.820Z,6.55
2023-04-29T00:45:08.261Z,5.88
2023-04-29T00:48:11.124Z,5.40
2023-04-29T00:51:14.120Z,5.38
2023-04-29T00:54:17.540Z,5.47
2023-04-29T00:57:20.211Z,5.32
2023-04-29T01:00:25.081Z,5.75
2023-04-29T01:03:30.857Z,5.90
2023-04-29T01:06:42.989Z,5.97
2023-04-29T01:10:14.841Z,5.70
2023-04-29T01:13:21.901Z,5.75
2023-04-29T01:16:38.057Z,5.90
2023-04-29T01:19:47.110Z,6.03
2023-04-29T01:22:49.949Z,6.28
2023-04-29T01:25:52.563Z,5.70
2023-04-29T01:29:28.938Z,6.00
2023-04-29T01:32:55.423Z,6.10
2023-04-29T01:36:05.828Z,5.68
2023-04-29T01:39:45.625Z,6.30
2023-04-29T01:43:04.512Z,6.00
2023-04-29T01:46:13.649Z,6.35
2023-04-29T01:49:16.806Z,5.70
2023-04-29T01:52:19.681Z,6.07
2023-04-29T01:55:32.530Z,6.85
2023-04-29T01:59:05.222Z,5.60
2023-04-29T02:02:23.811Z,5.72
2023-04-29T02:05:34.624Z,6.15
2023-04-29T02:08:37.827Z,6.13
2023-04-29T02:11:40.470Z,6.95
2023-04-29T02:14:43.337Z,6.27
2023-04-29T02:17:47.040Z,5.75
2023-04-29T02:20:51.127Z,6.22
2023-04-29T02:23:54.649Z,5.57
2023-04-29T02:26:59.750Z,6.28
2023-04-29T02:30:02.716Z,5.63
2023-04-29T02:33:08.288Z,6.32
2023-04-29T02:36:11.355Z,6.25
2023-04-29T02:39:13.969Z,6.63
2023-04-29T02:42:16.530Z,7.38
2023-04-29T02:45:19.286Z,6.40
2023-04-29T02:48:21.994Z,7.32
2023-04-29T02:51:24.772Z,6.30
2023-04-29T02:54:27.630Z,6.13
2023-04-29T02:57:30.430Z,7.10
2023-04-29T03:00:33.115Z,6.73
2023-04-29T03:03:36.025Z,6.60
2023-04-29T03:06:38.921Z,6.93
2023-04-29T03:09:41.430Z,6.88
2023-04-29T03:12:44.210Z,7.10
2023-04-29T03:15:46.985Z,7.20
2023-04-29T03:18:50.267Z,6.82
2023-04-29T03:21:54.056Z,6.85
2023-04-29T03:24:57.689Z,6.70
2023-04-29T03:28:00.347Z,7.15
2023-04-29T03:31:03.266Z,6.90
2023-04-29T03:34:06.532Z,6.80
2023-04-29T03:37:12.963Z,7.38
2023-04-29T03:40:21.924Z,6.80
2023-04-29T03:43:25.627Z,6.78
2023-04-29T03:46:28.400Z,6.63
2023-04-29T03:49:31.440Z,7.30
2023-04-29T03:52:36.693Z,7.00
2023-04-29T03:55:45.093Z,6.65
2023-04-29T03:58:47.680Z,6.78
2023-04-29T04:01:50.981Z,6.33
2023-04-29T04:04:55.404Z,6.30
2023-04-29T04:07:58.313Z,6.03
2023-04-29T04:11:15.337Z,6.03
2023-04-29T04:14:21.805Z,6.95
2023-04-29T04:17:24.620Z,6.53
2023-04-29T04:20:27.500Z,6.20
2023-04-29T04:23:30.253Z,6.15
2023-04-29T04:26:34.100Z,6.53
2023-04-29T04:29:46.557Z,6.10
2023-04-29T04:32:52.492Z,6.60
2023-04-29T04:35:55.345Z,8.02
2023-04-29T04:38:58.059Z,10.38
2023-04-29T04:42:03.264Z,12.20
2023-04-29T04:45:09.856Z,10.65
2023-04-29T04:48:23.824Z,8.17
2023-04-29T04:51:29.204Z,8.20
2023-04-29T04:54:32.213Z,7.80
2023-04-29T04:57:45.350Z,7.93
2023-04-29T05:00:47.959Z,7.93
2023-04-29T05:03:50.870Z,8.20
2023-04-29T05:06:54.092Z,8.45
2023-04-29T05:09:58.352Z,8.40
2023-04-29T05:13:01.002Z,7.57
2023-04-29T05:16:06.547Z,8.85
2023-04-29T05:19:10.101Z,8.23
2023-04-29T05:22:16.017Z,8.20
2023-04-29T05:25:19.000Z,7.90
2023-04-29T05:28:21.882Z,8.07
2023-04-29T05:31:24.829Z,7.35
2023-04-29T05:34:27.612Z,7.10
2023-04-29T05:37:32.198Z,8.15
2023-04-29T05:40:44.778Z,7.07
2023-04-29T05:44:10.722Z,6.97
2023-04-29T05:47:13.742Z,7.47
2023-04-29T05:50:17.160Z,7.97
2023-04-29T05:53:20.400Z,8.07
2023-04-29T05:56:24.535Z,7.88
2023-04-29T05:59:27.237Z,7.63
2023-04-29T06:02:30.351Z,6.72
2023-04-29T06:05:34.608Z,6.80
2023-04-29T06:09:26.503Z,6.80
2023-04-29T06:12:31.636Z,6.80
2023-04-29T06:15:34.587Z,7.25
2023-04-29T06:18:38.402Z,8.13
2023-04-29T06:21:41.244Z,6.83
2023-04-29T06:24:44.027Z,7.22
2023-04-29T06:27:49.609Z,7.72
2023-04-29T06:30:54.834Z,7.68
2023-04-29T06:33:57.702Z,7.55
2023-04-29T06:37:01.434Z,7.23
2023-04-29T06:40:27.243Z,7.55
2023-04-29T06:43:49.027Z,7.22
2023-04-29T06:46:51.804Z,6.82
2023-04-29T06:50:13.291Z,7.13
2023-04-29T06:53:15.977Z,6.93
2023-04-29T06:56:18.942Z,7.60
2023-04-29T06:59:23.562Z,7.35
2023-04-29T07:02:26.330Z,7.32
2023-04-29T07:05:29.403Z,7.10
2023-04-29T07:08:32.428Z,7.20
2023-04-29T07:11:35.068Z,7.15
2023-04-29T07:14:37.685Z,7.47
2023-04-29T07:17:40.428Z,7.03
2023-04-29T07:20:44.675Z,7.47
2023-04-29T07:23:48.176Z,6.83
2023-04-29T07:26:50.819Z,7.05
2023-04-29T07:29:53.537Z,6.97
2023-04-29T07:32:56.735Z,6.57
2023-04-29T07:36:00.542Z,6.88
2023-04-29T07:39:03.491Z,7.17
2023-04-29T07:42:07.209Z,11.30
2023-04-29T07:45:10.548Z,7.60
2023-04-29T07:48:13.556Z,7.60
2023-04-29T07:51:16.723Z,6.95
2023-04-29T07:54:22.731Z,6.63
2023-04-29T07:57:25.492Z,5.97
2023-04-29T08:00:28.463Z,7.15
2023-04-29T08:03:31.506Z,6.40
2023-04-29T08:06:36.140Z,6.40
2023-04-29T08:09:38.970Z,6.23
2023-04-29T08:12:41.860Z,6.90
2023-04-29T08:15:44.482Z,6.90
2023-04-29T08:18:47.134Z,7.82
2023-04-29T08:21:49.809Z,6.68
2023-04-29T08:24:52.884Z,10.73
2023-04-29T08:27:56.172Z,8.60
2023-04-29T08:30:59.688Z,5.93
2023-04-29T08:34:02.267Z,6.18
2023-04-29T08:37:04.888Z,6.35
2023-04-29T08:40:09.137Z,6.47
2023-04-29T08:43:12.433Z,6.43
2023-04-29T08:46:15.197Z,6.43
2023-04-29T08:49:17.806Z,6.38
2023-04-29T08:52:20.500Z,6.13
2023-04-29T08:55:23.342Z,6.27
2023-04-29T08:58:28.631Z,6.53
2023-04-29T09:01:32.024Z,7.00
2023-04-29T09:04:58.491Z,6.38
2023-04-29T09:08:03.511Z,6.72
2023-04-29T09:11:12.344Z,6.20
2023-04-29T09:14:15.465Z,7.38
2023-04-29T09:17:18.430Z,6.53
2023-04-29T09:20:23.884Z,6.07
2023-04-29T09:23:37.540Z,6.30
2023-04-29T09:26:43.698Z,5.87
2023-04-29T09:30:01.085Z,6.63
2023-04-29T09:33:10.144Z,6.53
2023-04-29T09:36:12.850Z,6.28
2023-04-29T09:39:17.885Z,7.90
2023-04-29T09:42:20.670Z,9.53
2023-04-29T09:45:44.005Z,6.57
2023-04-29T09:48:46.777Z,6.32
2023-04-29T09:51:57.707Z,8.02
2023-04-29T09:55:05.353Z,6.35
2023-04-29T09:58:07.924Z,6.17
2023-04-29T10:01:13.442Z,7.13
2023-04-29T10:04:17.812Z,6.82
2023-04-29T10:07:21.431Z,7.45
2023-04-29T10:10:24.795Z,7.13
2023-04-29T10:13:28.501Z,8.47
2023-04-29T10:16:34.645Z,7.07
2023-04-29T10:19:52.503Z,8.23
2023-04-29T10:22:56.713Z,7.60
2023-04-29T10:26:01.240Z,8.13
2023-04-29T10:29:05.233Z,6.57
2023-04-29T10:32:10.077Z,6.95
2023-04-29T10:35:14.936Z,7.28
2023-04-29T10:38:37.388Z,5.95
2023-04-29T10:41:48.333Z,6.22
2023-04-29T10:45:22.615Z,5.90
2023-04-29T10:48:26.670Z,6.40
2023-04-29T10:51:56.002Z,6.55
2023-04-29T10:55:04.989Z,7.03
2023-04-29T10:58:39.942Z,6.63
2023-04-29T11:01:52.365Z,6.27
2023-04-29T11:05:12.558Z,6.70
2023-04-29T11:08:24.510Z,6.28
2023-04-29T11:11:28.331Z,5.32
2023-04-29T11:14:38.953Z,5.93
2023-04-29T11:17:41.823Z,5.73
2023-04-29T11:21:06.330Z,6.43
2023-04-29T11:24:09.183Z,5.10
2023-04-29T11:27:12.269Z,6.28
2023-04-29T11:30:15.501Z,6.70
2023-04-29T11:33:20.274Z,5.43
2023-04-29T11:36:23.098Z,5.78
2023-04-29T11:39:27.081Z,4.75
2023-04-29T11:42:30.026Z,4.63
2023-04-29T11:45:36.335Z,4.63
2023-04-29T11:48:45.804Z,4.63
2023-04-29T11:51:48.554Z,4.85
2023-04-29T11:54:52.300Z,4.15
2023-04-29T11:57:55.387Z,3.60
2023-04-29T12:01:01.266Z,3.45
2023-04-29T12:04:06.247Z,2.83
2023-04-29T12:07:10.359Z,2.70
2023-04-29T12:10:13.107Z,2.60
2023-04-29T12:13:20.014Z,2.40
2023-04-29T12:16:24.348Z,2.60
2023-04-29T12:19:27.505Z,2.87
2023-04-29T12:22:33.556Z,2.35
2023-04-29T12:25:36.244Z,2.70
2023-04-29T12:28:41.828Z,3.42
2023-04-29T12:31:47.711Z,3.45
2023-04-29T12:34:53.077Z,3.47
2023-04-29T12:37:58.790Z,3.17
2023-04-29T12:41:05.678Z,3.22
2023-04-29T12:44:10.906Z,2.50
2023-04-29T12:47:14.065Z,2.67
2023-04-29T12:50:16.834Z,3.00
2023-04-29T12:53:19.506Z,2.90
2023-04-29T12:56:22.804Z,3.28
2023-04-29T12:59:25.431Z,3.20
2023-04-29T13:02:28.836Z,3.05
2023-04-29T13:05:31.840Z,3.67
2023-04-29T13:08:34.739Z,3.15
2023-04-29T13:11:38.208Z,3.25
2023-04-29T13:14:41.183Z,3.15
2023-04-29T13:17:44.079Z,3.28
2023-04-29T13:23:50.613Z,3.10
2023-04-29T13:26:54.381Z,3.25
2023-04-29T13:29:58.196Z,3.45
2023-04-29T13:33:09.899Z,3.47
2023-04-29T13:36:15.364Z,2.70
2023-04-29T13:39:20.355Z,2.83
2023-04-29T13:42:26.563Z,3.40
2023-04-29T13:45:30.545Z,2.67
2023-04-29T13:55:25.785Z,3.05
2023-04-29T13:58:56.141Z,3.35
2023-04-29T14:04:41.949Z,2.80
2023-04-29T14:07:44.734Z,2.60
2023-04-29T14:10:48.431Z,2.40
2023-04-29T14:13:51.278Z,3.20
2023-04-29T14:16:55.785Z,23.35
2023-04-29T14:19:58.697Z,2.90
2023-04-29T14:23:02.081Z,4.73
2023-04-29T14:33:05.620Z,2.30
2023-04-29T14:36:09.514Z,2.28
2023-04-29T14:39:13.517Z,2.43
2023-04-29T14:42:18.868Z,2.30
2023-04-29T14:45:21.791Z,4.68
2023-04-29T14:48:25.379Z,5.22
2023-04-29T14:51:28.622Z,2.97
2023-04-29T14:54:31.418Z,1.90
2023-04-29T14:57:34.169Z,2.25
2023-04-29T15:00:37.268Z,3.28
2023-04-29T15:03:44.138Z,2.80
2023-04-29T15:06:47.882Z,2.75
2023-04-29T15:09:50.991Z,3.60
2023-04-29T15:12:54.446Z,2.95
2023-04-29T15:15:57.447Z,4.03
2023-04-29T15:19:01.141Z,4.40
2023-04-29T15:22:04.172Z,3.70
2023-04-29T15:25:08.617Z,3.20
2023-04-29T15:28:11.864Z,2.40
2023-04-29T15:31:14.640Z,3.05
2023-04-29T15:34:17.536Z,2.53
2023-04-29T15:37:20.492Z,4.15
2023-04-29T15:40:24.148Z,3.37
2023-04-29T15:43:30.480Z,3.97
2023-04-29T15:46:33.664Z,4.40
2023-04-29T15:49:36.568Z,4.10
2023-04-29T15:52:39.401Z,4.30
2023-04-29T15:55:42.426Z,4.10
2023-04-29T15:58:45.301Z,4.43
2023-04-29T16:01:48.139Z,4.18
2023-04-29T16:04:51.060Z,4.90
2023-04-29T16:07:54.000Z,4.45
2023-04-29T16:10:56.878Z,4.10
2023-04-29T16:13:59.939Z,6.93
2023-04-29T16:17:03.534Z,4.40
2023-04-29T16:20:07.031Z,3.70
2023-04-29T16:23:10.078Z,3.30
2023-04-29T16:26:13.393Z,3.57
2023-04-29T16:29:16.294Z,3.70
2023-04-29T16:32:25.307Z,3.70
2023-04-29T16:35:38.902Z,4.03
2023-04-29T16:38:41.990Z,4.00
2023-04-29T16:41:44.806Z,4.03
2023-04-29T16:44:47.395Z,4.03
2023-04-29T16:47:50.038Z,4.40
2023-04-29T16:50:52.693Z,3.40
2023-04-29T16:53:55.734Z,3.95
2023-04-29T16:56:58.474Z,3.67
2023-04-29T17:00:01.132Z,2.22
2023-04-29T17:03:04.529Z,3.38
2023-04-29T17:06:07.487Z,3.28
2023-04-29T17:09:10.006Z,4.05
2023-04-29T17:12:12.629Z,6.90
2023-04-29T17:15:15.319Z,9.70
2023-04-29T17:18:20.043Z,19.92
2023-04-29T17:21:24.955Z,16.60
2023-04-29T17:24:27.630Z,10.45
2023-04-29T17:27:30.455Z,5.53
2023-04-29T17:30:35.879Z,4.55
2023-04-29T17:33:39.972Z,5.38
2023-04-29T17:36:42.598Z,20.30
2023-04-29T17:39:45.267Z,33.95
2023-04-29T17:42:47.970Z,21.70
2023-04-29T17:45:50.702Z,11.98
2023-04-29T17:48:53.424Z,7.13
2023-04-29T17:51:56.106Z,5.38
2023-04-29T17:54:58.730Z,4.85
2023-04-29T17:58:01.613Z,5.27
2023-04-29T18:01:08.765Z,7.07
2023-04-29T18:04:12.475Z,6.82
2023-04-29T18:07:15.434Z,22.35
2023-04-29T18:10:18.383Z,43.50
2023-04-29T18:13:21.058Z,17.23
2023-04-29T18:16:23.890Z,16.80
2023-04-29T18:19:26.869Z,22.17
2023-04-29T18:22:29.638Z,50.83
2023-04-29T18:25:35.764Z,21.17
2023-04-29T18:28:38.477Z,19.23
2023-04-29T18:31:41.495Z,15.73
2023-04-29T18:34:44.155Z,15.82
2023-04-29T18:37:46.906Z,10.80
2023-04-29T18:40:49.596Z,11.07
2023-04-29T18:43:53.617Z,9.07
2023-04-29T18:46:56.238Z,8.13
2023-04-29T18:49:58.889Z,9.65
2023-04-29T18:53:02.052Z,7.78
2023-04-29T18:56:04.988Z,9.10
2023-04-29T18:59:09.737Z,8.83
2023-04-29T19:02:12.695Z,8.68
2023-04-29T19:05:16.312Z,7.60
2023-04-29T19:08:19.370Z,7.90
2023-04-29T19:11:23.165Z,11.07
2023-04-29T19:14:27.001Z,29.23
2023-04-29T19:17:29.636Z,28.35
2023-04-29T19:20:32.525Z,33.88
2023-04-29T19:23:35.061Z,44.33
2023-04-29T19:26:40.028Z,28.75
2023-04-29T19:29:43.076Z,19.93
2023-04-29T19:32:47.079Z,35.95
2023-04-29T19:35:49.821Z,31.13
2023-04-29T19:38:52.660Z,36.42
2023-04-29T19:41:56.129Z,17.67
2023-04-29T19:44:58.846Z,24.00
2023-04-29T19:48:02.313Z,18.05
2023-04-29T19:51:08.770Z,15.00
2023-04-29T19:54:11.498Z,12.57
2023-04-29T19:57:14.128Z,13.57
2023-04-29T20:00:17.544Z,13.30
2023-04-29T20:03:21.529Z,14.38
2023-04-29T20:06:24.291Z,18.52
2023-04-29T20:09:27.257Z,16.05
2023-04-29T20:12:29.874Z,17.05
2023-04-29T20:15:32.554Z,17.07
2023-04-29T20:18:38.015Z,17.77
2023-04-29T20:21:41.239Z,14.40
2023-04-29T20:24:44.110Z,12.70
2023-04-29T20:27:46.700Z,14.80
2023-04-29T20:30:49.461Z,15.23
2023-04-29T20:33:52.068Z,14.75
2023-04-29T20:36:54.678Z,14.77
2023-04-29T20:39:57.354Z,19.48
2023-04-29T20:42:59.980Z,24.45
2023-04-29T20:46:03.437Z,24.00
2023-04-29T20:49:06.462Z,24.33
2023-04-29T20:52:09.080Z,25.65
2023-04-29T20:55:12.154Z,25.23
2023-04-29T20:58:16.537Z,29.15
2023-04-29T21:01:19.579Z,25.70
2023-04-29T21:04:23.398Z,21.80
2023-04-29T21:07:26.227Z,18.00
2023-04-29T21:10:28.909Z,19.10
2023-04-29T21:13:31.548Z,19.25
2023-04-29T21:16:34.293Z,21.47
2023-04-29T21:19:37.824Z,23.33
2023-04-29T21:22:40.573Z,19.77
2023-04-29T21:25:43.870Z,19.40
2023-04-29T21:28:46.663Z,22.90
2023-04-29T21:31:49.474Z,20.10
2023-04-29T21:34:52.064Z,24.20
2023-04-29T21:37:55.168Z,23.10
2023-04-29T21:40:59.320Z,21.50
2023-04-29T21:44:02.076Z,23.17
2023-04-29T21:47:04.976Z,19.50
2023-04-29T21:50:09.158Z,17.25
2023-04-29T21:53:14.436Z,15.15
2023-04-29T21:56:19.451Z,12.20
2023-04-29T21:59:22.049Z,11.77
2023-04-29T22:02:27.594Z,10.53
2023-04-29T22:05:31.429Z,9.80
2023-04-29T22:08:33.993Z,8.57
2023-04-29T22:11:36.850Z,9.43
2023-04-29T22:14:39.469Z,7.70
2023-04-29T22:17:42.425Z,8.70
2023-04-29T22:20:45.126Z,8.50
2023-04-29T22:23:49.287Z,8.98
2023-04-29T22:26:51.952Z,8.38
2023-04-29T22:29:54.751Z,9.05
2023-04-29T22:32:57.770Z,9.37
2023-04-29T22:36:00.508Z,10.38
2023-04-29T22:39:03.686Z,12.85
2023-04-29T22:42:06.580Z,12.27
2023-04-29T22:45:11.159Z,12.95
2023-04-29T22:48:13.835Z,12.83
2023-04-29T22:51:16.533Z,11.80
2023-04-29T22:54:19.123Z,11.32
2023-04-29T22:57:21.702Z,11.10
2023-04-29T23:00:24.483Z,10.70
2023-04-29T23:03:27.675Z,11.30
2023-04-29T23:06:30.858Z,10.50
2023-04-29T23:09:33.586Z,12.00
2023-04-29T23:12:36.181Z,9.70
2023-04-29T23:15:38.743Z,10.45
2023-04-29T23:18:41.408Z,9.63
2023-04-29T23:21:44.003Z,9.32
2023-04-29T23:24:46.716Z,10.07
2023-04-29T23:27:49.445Z,10.32
2023-04-29T23:30:52.088Z,10.45
2023-04-29T23:33:54.753Z,9.97
2023-04-29T23:36:57.479Z,9.45
2023-04-29T23:40:00.307Z,9.77
2023-04-29T23:43:02.944Z,9.55
2023-04-29T23:46:05.654Z,8.60
2023-04-29T23:49:09.036Z,9.40
2023-04-29T23:52:11.675Z,9.05
2023-04-29T23:55:14.318Z,10.00
2023-04-29T23:58:16.851Z,10.10
